Phelps, Kentucky
Current Conditions -  °F | °C
As of 3:15 PM on Wednesday 26 Nov 2014 (Local Time) from KPBX Reporting Station
Scattered Clouds Scattered Clouds  
Wind Chill: 42°   Ceiling: Unl
Heat Index: 45°   Visibility: 10mi
Dew Point: 32°   Wind: 5mph
Humidity: 60%   Direction: 310°NW
Pressure: 29.97"   Gusts: NA
Location:  37.51°N, 82.16°W
Report Text: KPBX 262015Z AUTO 31004KT 10SM SCT036 07/00 A2997 RMK AO2 T00701002
Loading
Personal Weather Stations






























Interactive Weather Map New forecast layout! Learn more

10-Day Weather Forecast

Advertisements
Track Severe Weather on mobile